Time;durP1;ratioP1;P1;durP2;ratioP2;P2;SDS_P1;SDS_P2;PMS_P1;PMS_P2;Temp;Humidity;BMP_temperature;BMP_pressure;BME280_temperature;BME280_humidity;BME280_pressure;Samples;Min_cycle;Max_cycle;Signal;HPM_P1;HPM_P2
2021/03/09 00:01:22;;;;;;;82.70;4.53;;;;;;;-4.77;77.30;100699.47;1706096;84;21043;-43
2021/03/09 00:03:51;;;;;;;11.68;2.10;;;;;;;-4.80;77.34;100702.73;1706265;83;21011;-42
2021/03/09 00:06:19;;;;;;;34.35;2.67;;;;;;;-4.85;77.29;100708.35;1706246;83;21570;-43
2021/03/09 00:08:47;;;;;;;72.22;4.00;;;;;;;-4.88;77.33;100693.05;1706167;84;21046;-41
2021/03/09 00:11:15;;;;;;;29.92;3.27;;;;;;;-4.94;77.49;100696.14;1706134;83;22147;-41
2021/03/09 00:13:42;;;;;;;9.55;2.10;;;;;;;-4.98;77.64;100698.91;1706297;84;21476;-40
2021/03/09 00:16:10;;;;;;;85.67;7.00;;;;;;;-5.03;77.80;100695.30;1706160;83;21023;-41
2021/03/09 00:18:39;;;;;;;4.53;1.80;;;;;;;-5.08;77.95;100692.53;1706217;84;21342;-41
2021/03/09 00:21:06;;;;;;;22.67;2.00;;;;;;;-5.11;77.99;100703.75;1706132;84;21035;-41
2021/03/09 00:23:34;;;;;;;9.63;2.20;;;;;;;-5.13;78.04;100697.76;1706217;84;20967;-42
2021/03/09 00:26:03;;;;;;;42.67;2.95;;;;;;;-5.17;78.09;100692.09;1706218;84;21413;-41
2021/03/09 00:28:31;;;;;;;6.30;1.95;;;;;;;-5.20;78.16;100701.63;1706293;83;20951;-41
2021/03/09 00:30:58;;;;;;;14.05;2.87;;;;;;;-5.23;78.25;100701.89;1706132;83;21361;-40
2021/03/09 00:33:27;;;;;;;10.80;2.52;;;;;;;-5.25;78.45;100694.23;1706089;82;21138;-42
2021/03/09 00:35:55;;;;;;;10.20;2.72;;;;;;;-5.26;78.58;100699.22;1706301;83;20935;-40
2021/03/09 00:38:23;;;;;;;25.15;2.75;;;;;;;-5.31;78.69;100695.20;1706086;84;21043;-42
2021/03/09 00:40:52;;;;;;;28.07;3.15;;;;;;;-5.32;78.96;100695.98;1706334;83;21070;-41
2021/03/09 00:43:20;;;;;;;132.47;7.12;;;;;;;-5.32;79.07;100698.89;1706204;84;21280;-43
2021/03/09 00:45:48;;;;;;;19.12;3.25;;;;;;;-5.35;79.24;100701.73;1706198;84;20975;-41
2021/03/09 00:48:16;;;;;;;50.55;4.10;;;;;;;-5.39;79.41;100702.38;1706162;84;21035;-41
2021/03/09 00:50:45;;;;;;;10.10;2.92;;;;;;;-5.40;79.65;100698.13;1706152;84;21009;-43
2021/03/09 00:53:13;;;;;;;335.35;12.47;;;;;;;-5.40;79.83;100698.53;1706182;82;21020;-41
2021/03/09 00:55:41;;;;;;;393.42;22.25;;;;;;;-5.38;80.00;100699.48;1706166;84;21219;-41
2021/03/09 00:58:09;;;;;;;154.63;9.15;;;;;;;-5.37;80.16;100701.21;1706175;83;20955;-41
2021/03/09 01:00:37;;;;;;;87.82;6.20;;;;;;;-5.35;80.18;100698.36;1706187;84;21082;-43
2021/03/09 01:03:06;;;;;;;83.20;8.50;;;;;;;-5.36;80.26;100696.63;1706131;84;21580;-43
2021/03/09 01:05:34;;;;;;;121.95;6.65;;;;;;;-5.34;80.31;100698.84;1706199;84;21064;-42
2021/03/09 01:08:04;;;;;;;6.42;3.95;;;;;;;-5.34;80.46;100688.73;1706178;84;21376;-44
2021/03/09 01:10:32;;;;;;;3.98;3.27;;;;;;;-5.31;80.36;100698.98;1706127;84;21055;-40
2021/03/09 01:13:01;;;;;;;6.92;3.60;;;;;;;-5.30;80.39;100704.50;1706208;84;21200;-42
2021/03/09 01:15:28;;;;;;;212.82;11.55;;;;;;;-5.26;80.35;100703.02;1706130;84;21097;-41
2021/03/09 01:17:58;;;;;;;21.55;3.85;;;;;;;-5.26;80.33;100703.02;1704107;84;21043;-41
2021/03/09 01:20:27;;;;;;;93.60;6.50;;;;;;;-5.29;80.50;100703.71;1706167;84;21420;-43
2021/03/09 01:22:55;;;;;;;69.42;6.22;;;;;;;-5.29;80.52;100713.81;1706092;84;21110;-41
2021/03/09 01:25:23;;;;;;;98.95;5.83;;;;;;;-5.29;80.75;100712.95;1706159;84;21030;-41
2021/03/09 01:27:51;;;;;;;32.93;5.12;;;;;;;-5.24;80.75;100709.84;1706196;84;21026;-40
2021/03/09 01:30:20;;;;;;;10.13;3.37;;;;;;;-5.27;80.94;100707.59;1706110;84;21082;-41
2021/03/09 01:32:48;;;;;;;68.70;5.17;;;;;;;-5.27;81.09;100717.69;1710825;83;21158;-41
2021/03/09 01:35:16;;;;;;;459.75;19.55;;;;;;;-5.27;81.02;100712.22;1719626;83;21046;-42
2021/03/09 01:37:44;;;;;;;103.30;5.33;;;;;;;-5.31;81.16;100714.51;1719691;83;21006;-42
2021/03/09 01:40:13;;;;;;;412.65;16.05;;;;;;;-5.37;81.44;100718.47;1719627;83;20955;-43
2021/03/09 01:42:41;;;;;;;339.08;14.07;;;;;;;-5.37;81.71;100719.73;1719696;83;20960;-40
2021/03/09 01:45:10;;;;;;;319.93;14.15;;;;;;;-5.40;81.83;100724.63;1719701;83;21222;-41
2021/03/09 01:48:43;;;;;;;478.48;22.55;;;;;;;-5.40;81.98;100722.09;1776933;79;23230;-42
2021/03/09 01:51:18;;;;;;;75.17;5.97;;;;;;;-5.49;82.02;100726.69;1749435;82;21035;-41
2021/03/09 01:53:46;;;;;;;23.12;4.10;;;;;;;-5.54;82.22;100731.48;1724310;82;23326;-42
2021/03/09 01:56:14;;;;;;;60.58;7.15;;;;;;;-5.57;82.37;100730.08;1719507;83;21042;-43
2021/03/09 01:58:47;;;;;;;4.62;3.42;;;;;;;-5.57;82.50;100738.02;1719624;83;21014;-43
2021/03/09 02:01:16;;;;;;;38.33;6.97;;;;;;;-5.61;82.59;100747.11;1719560;82;21035;-43
2021/03/09 02:03:45;;;;;;;71.15;6.55;;;;;;;-5.63;82.85;100742.37;1719650;82;20951;-41
2021/03/09 02:06:15;;;;;;;147.40;6.92;;;;;;;-5.64;82.91;100742.76;1719558;83;21257;-43
2021/03/09 02:08:44;;;;;;;85.15;5.15;;;;;;;-5.66;82.97;100746.86;1719581;83;21092;-43
2021/03/09 02:11:43;;;;;;;236.47;10.38;;;;;;;-5.66;83.23;100756.09;1719607;83;21011;-43
2021/03/09 02:14:34;;;;;;;88.47;6.47;;;;;;;-5.68;83.37;100752.63;1693723;83;21066;-42
2021/03/09 02:17:15;;;;;;;19.55;3.90;;;;;;;-5.63;83.56;100758.37;1719675;83;21054;-40
2021/03/09 02:20:20;;;;;;;183.12;11.78;;;;;;;-5.63;83.69;100763.83;1719558;83;21375;-41
2021/03/09 02:23:10;;;;;;;119.65;9.10;;;;;;;-5.63;83.74;100762.56;1719507;83;21062;-42
2021/03/09 02:25:52;;;;;;;302.43;15.35;;;;;;;-5.63;83.76;100772.66;1719647;83;21041;-41
2021/03/09 02:28:56;;;;;;;41.20;3.90;;;;;;;-5.70;83.80;100775.23;1719532;83;21072;-41
2021/03/09 02:31:25;;;;;;;6.05;2.98;;;;;;;-5.77;83.91;100776.56;1719666;83;20999;-42
2021/03/09 02:33:58;;;;;;;38.88;3.72;;;;;;;-5.81;84.06;100772.53;1719570;83;21210;-41
2021/03/09 02:36:28;;;;;;;3.02;2.25;;;;;;;-5.83;84.13;100781.29;1719651;82;21623;-42
2021/03/09 02:38:59;;;;;;;5.28;3.00;;;;;;;-5.85;84.13;100785.77;1719577;83;20939;-41
2021/03/09 02:41:28;;;;;;;2.10;2.00;;;;;;;-5.90;84.17;100783.02;1716356;83;20967;-42
2021/03/09 02:43:57;;;;;;;3.25;1.82;;;;;;;-5.94;84.21;100788.66;1691534;83;21471;-42
2021/03/09 02:46:28;;;;;;;4.30;2.33;;;;;;;-5.97;84.25;100796.94;1719554;82;21375;-43
2021/03/09 02:48:56;;;;;;;4.62;3.70;;;;;;;-5.96;84.31;100797.42;1720235;83;21097;-41
2021/03/09 02:51:26;;;;;;;6.37;2.08;;;;;;;-5.98;84.18;100809.45;1694326;83;21050;-39
2021/03/09 02:53:56;;;;;;;58.33;5.17;;;;;;;-5.97;84.12;100808.28;1720286;82;21138;-40
2021/03/09 02:56:24;;;;;;;3.52;2.65;;;;;;;-5.95;83.90;100804.57;1720375;83;21015;-41
2021/03/09 02:58:54;;;;;;;15.48;2.67;;;;;;;-5.91;83.59;100814.92;1720001;83;21377;-41
2021/03/09 03:01:27;;;;;;;18.42;2.58;;;;;;;-5.87;83.17;100818.48;1719787;83;21074;-43
2021/03/09 03:03:55;;;;;;;5.67;2.60;;;;;;;-5.89;82.97;100822.95;1719825;83;21010;-42
2021/03/09 03:06:24;;;;;;;3.55;2.40;;;;;;;-5.92;82.87;100823.27;1719722;83;21034;-41
2021/03/09 03:08:52;;;;;;;2.40;2.10;;;;;;;-5.94;82.78;100826.48;1693823;83;21022;-42
2021/03/09 03:11:20;;;;;;;12.65;2.67;;;;;;;-5.96;82.42;100830.58;1693404;83;21382;-41
2021/03/09 03:13:48;;;;;;;2.30;2.10;;;;;;;-5.96;82.28;100831.84;1719754;83;21034;-42
2021/03/09 03:16:17;;;;;;;2.60;1.92;;;;;;;-5.97;82.23;100831.36;1719754;83;20947;-40
2021/03/09 03:18:45;;;;;;;4.00;2.05;;;;;;;-5.98;81.99;100838.45;1693487;83;21038;-43
2021/03/09 03:21:14;;;;;;;4.50;1.85;;;;;;;-5.99;81.76;100837.59;1719776;83;20958;-40
2021/03/09 03:23:43;;;;;;;2.83;1.90;;;;;;;-6.00;81.64;100838.76;1719828;82;21202;-40
2021/03/09 03:26:11;;;;;;;2.25;2.02;;;;;;;-6.04;81.55;100840.67;1719680;83;21089;-41
2021/03/09 03:28:41;;;;;;;3.72;2.20;;;;;;;-6.04;81.58;100848.23;1719800;83;20911;-42
2021/03/09 03:31:09;;;;;;;2.33;2.12;;;;;;;-6.02;81.26;100852.59;1719752;83;21034;-42
2021/03/09 03:33:37;;;;;;;2.33;2.12;;;;;;;-5.99;81.12;100849.32;1719852;83;20951;-42
2021/03/09 03:36:06;;;;;;;4.45;2.50;;;;;;;-6.01;81.10;100849.66;1719876;83;21389;-41
2021/03/09 03:38:36;;;;;;;3.92;2.37;;;;;;;-6.02;80.92;100846.29;1719769;83;21031;-42
2021/03/09 03:41:06;;;;;;;3.67;1.80;;;;;;;-6.04;80.77;100846.98;1719740;82;20963;-43
2021/03/09 03:43:34;;;;;;;1.90;1.50;;;;;;;-6.07;80.81;100844.77;1719883;83;21654;-41
2021/03/09 03:46:02;;;;;;;7.03;1.65;;;;;;;-6.08;80.68;100847.19;1719803;83;20978;-41
2021/03/09 03:48:35;;;;;;;3.05;2.20;;;;;;;-6.06;80.53;100854.06;1710565;82;21297;-42
2021/03/09 03:51:08;;;;;;;2.72;1.80;;;;;;;-6.06;80.57;100860.37;1706201;84;21039;-42
2021/03/09 03:54:27;;;;;;;8.25;2.67;;;;;;;-6.07;80.55;100872.50;1706210;82;21613;-41
2021/03/09 03:57:06;;;;;;;2.95;2.20;;;;;;;-6.08;80.54;100870.76;1706246;84;21039;-41
2021/03/09 03:59:44;;;;;;;3.77;2.00;;;;;;;-6.11;80.43;100878.16;1706266;84;21034;-41
2021/03/09 04:02:15;;;;;;;2.08;1.98;;;;;;;-6.15;80.50;100881.30;1706313;84;21365;-41
2021/03/09 04:04:45;;;;;;;3.92;2.02;;;;;;;-6.18;80.58;100886.55;1686479;84;21031;-42
2021/03/09 04:07:13;;;;;;;3.08;2.10;;;;;;;-6.21;80.66;100888.48;1706121;83;20960;-42
2021/03/09 04:09:41;;;;;;;4.22;1.98;;;;;;;-6.25;80.71;100883.69;1686429;84;21485;-41
2021/03/09 04:12:10;;;;;;;2.50;2.30;;;;;;;-6.27;80.80;100884.37;1664068;84;20999;-42
2021/03/09 04:14:38;;;;;;;6.28;2.22;;;;;;;-6.28;80.76;100880.11;1706237;84;21153;-42
2021/03/09 04:17:07;;;;;;;6.05;2.15;;;;;;;-6.29;80.79;100886.81;1706242;84;21035;-42
2021/03/09 04:19:35;;;;;;;5.67;2.70;;;;;;;-6.32;80.87;100893.32;1686318;84;21107;-42
2021/03/09 04:22:03;;;;;;;2.37;2.10;;;;;;;-6.33;80.87;100892.84;1706267;83;20964;-41
2021/03/09 04:24:31;;;;;;;5.03;2.87;;;;;;;-6.34;80.81;100897.00;1706217;84;21030;-42
2021/03/09 04:26:59;;;;;;;4.62;2.40;;;;;;;-6.36;80.82;100896.93;1706246;83;21235;-41
2021/03/09 04:29:27;;;;;;;2.55;2.00;;;;;;;-6.35;80.78;100902.82;1663514;84;21019;-41
2021/03/09 04:31:55;;;;;;;3.85;2.72;;;;;;;-6.36;80.74;100908.27;1706264;83;20999;-41
2021/03/09 04:34:23;;;;;;;3.40;2.37;;;;;;;-6.34;80.63;100908.34;1706203;84;21664;-41
2021/03/09 04:36:52;;;;;;;5.75;2.10;;;;;;;-6.36;80.52;100913.31;1706247;84;21079;-41
2021/03/09 04:39:20;;;;;;;2.52;1.70;;;;;;;-6.37;80.55;100913.20;1650491;84;21218;-41
2021/03/09 04:41:48;;;;;;;5.28;2.08;;;;;;;-6.36;80.52;100923.77;1706129;84;20960;-41
2021/03/09 04:44:15;;;;;;;5.60;2.10;;;;;;;-6.33;80.29;100924.34;1706184;83;21007;-41
2021/03/09 04:46:44;;;;;;;2.87;2.40;;;;;;;-6.30;80.16;100919.10;1706196;84;21026;-43
2021/03/09 04:49:17;;;;;;;1.95;1.85;;;;;;;-6.29;80.17;100926.26;1712801;83;21011;-40
2021/03/09 04:51:47;;;;;;;2.12;1.90;;;;;;;-6.26;80.14;100930.20;1714086;83;21381;-41
2021/03/09 04:54:15;;;;;;;2.47;1.80;;;;;;;-6.18;79.73;100934.06;1714081;83;21019;-43
2021/03/09 04:56:43;;;;;;;1.75;1.65;;;;;;;-6.08;79.58;100936.31;1714082;83;20959;-42
2021/03/09 04:59:11;;;;;;;3.02;1.87;;;;;;;-5.99;79.43;100938.45;1714038;83;20998;-42
2021/03/09 05:01:39;;;;;;;2.17;1.62;;;;;;;-5.90;79.15;100943.16;1714077;83;21094;-42
2021/03/09 05:04:07;;;;;;;3.58;1.45;;;;;;;-5.83;78.55;100941.45;1714064;83;21288;-42
2021/03/09 05:06:34;;;;;;;1.80;1.52;;;;;;;-5.73;77.82;100943.20;1713963;83;21647;-43
2021/03/09 05:09:04;;;;;;;1.90;1.70;;;;;;;-5.69;77.51;100948.52;1714073;83;20999;-43
2021/03/09 05:11:33;;;;;;;2.35;1.90;;;;;;;-5.64;77.39;100955.94;1714093;83;21449;-42
2021/03/09 05:14:02;;;;;;;5.60;2.30;;;;;;;-5.56;76.92;100955.11;1714211;83;21015;-42
2021/03/09 05:16:29;;;;;;;3.02;1.75;;;;;;;-5.53;76.66;100955.27;1714087;83;21143;-42
2021/03/09 05:18:58;;;;;;;3.67;1.80;;;;;;;-5.50;76.36;100961.75;1714031;83;21051;-43
2021/03/09 05:21:26;;;;;;;2.05;1.70;;;;;;;-5.42;75.68;100963.84;1714043;83;20948;-43
2021/03/09 05:23:54;;;;;;;7.83;1.75;;;;;;;-5.40;75.50;100971.11;1714022;82;21018;-42
2021/03/09 05:26:24;;;;;;;2.98;1.20;;;;;;;-5.39;75.06;100979.16;1714107;83;21027;-42
2021/03/09 05:28:52;;;;;;;2.72;1.72;;;;;;;-5.39;74.88;100980.41;1714083;83;21243;-42
2021/03/09 05:31:21;;;;;;;3.27;1.77;;;;;;;-5.37;74.79;100983.89;1713990;83;20908;-42
2021/03/09 05:33:49;;;;;;;2.90;1.82;;;;;;;-5.36;74.61;100984.36;1714136;83;21035;-43
2021/03/09 05:36:18;;;;;;;2.12;1.82;;;;;;;-5.35;74.74;100983.58;1714108;83;20991;-41
2021/03/09 05:38:46;;;;;;;2.62;1.60;;;;;;;-5.31;74.85;100993.43;1714094;83;20923;-43
2021/03/09 05:52:50;;;;;;;2.98;1.70;;;;;;;-4.66;73.18;101004.47;1810550;79;22744;-41
2021/03/09 05:55:17;;;;;;;2.95;1.95;;;;;;;-4.60;71.67;101015.30;1786734;78;20968;-43
2021/03/09 05:57:46;;;;;;;4.42;2.98;;;;;;;-4.62;71.29;101008.51;1786802;80;21198;-42
2021/03/09 06:00:15;;;;;;;6.08;3.37;;;;;;;-4.58;71.08;101022.56;1786601;80;21019;-42
2021/03/09 06:02:43;;;;;;;11.43;6.53;;;;;;;-4.61;71.16;101019.47;1786734;80;21000;-41
2021/03/09 06:05:12;;;;;;;36.42;17.20;;;;;;;-4.60;70.53;101017.41;1786735;80;21604;-41
2021/03/09 06:07:40;;;;;;;7.08;2.92;;;;;;;-4.60;69.80;101026.67;1786715;80;20940;-40
2021/03/09 06:10:23;;;;;;;9.38;6.58;;;;;;;-4.59;69.82;101029.27;1786786;80;21195;-41
2021/03/09 06:12:51;;;;;;;73.40;33.58;;;;;;;-4.54;69.40;101030.39;1740915;82;20933;-40
2021/03/09 06:15:19;;;;;;;18.05;12.68;;;;;;;-4.52;68.55;101039.30;1735975;82;21122;-41
2021/03/09 06:17:58;;;;;;;6.00;4.40;;;;;;;-4.54;68.37;101029.13;1735933;82;21055;-40
2021/03/09 06:20:29;;;;;;;7.47;4.67;;;;;;;-4.53;68.75;101042.62;1735709;82;21047;-40
2021/03/09 06:22:59;;;;;;;2.55;2.10;;;;;;;-4.47;68.98;101039.14;1735969;82;21377;-41
2021/03/09 06:25:39;;;;;;;8.23;3.17;;;;;;;-4.39;68.42;101040.44;1735882;82;21655;-40
2021/03/09 06:28:10;;;;;;;4.10;1.90;;;;;;;-4.30;68.81;101046.74;1735921;82;20968;-40
2021/03/09 06:30:40;;;;;;;4.35;2.62;;;;;;;-4.22;68.61;101059.38;1736003;82;21162;-42
2021/03/09 06:33:08;;;;;;;4.95;2.77;;;;;;;-4.17;68.22;101055.83;1735955;82;21079;-41
2021/03/09 06:35:42;;;;;;;14.10;8.43;;;;;;;-4.12;68.50;101058.19;1735911;82;21349;-41
2021/03/09 06:38:21;;;;;;;2.92;2.40;;;;;;;-4.00;68.79;101065.54;1735689;82;20971;-41
2021/03/09 06:41:18;;;;;;;4.00;2.77;;;;;;;-3.85;68.71;101062.53;1735460;82;21580;-41
2021/03/09 06:44:02;;;;;;;;;;;;;;;-3.75;67.25;101069.77;1737001;82;21581;-41
2021/03/09 06:46:29;;;;;;;7.47;3.92;;;;;;;-3.70;66.90;101072.92;1734428;82;20119;-41
2021/03/09 06:49:02;;;;;;;3.10;2.20;;;;;;;-3.62;67.58;101071.25;1734360;82;21396;-41
2021/03/09 06:51:36;;;;;;;3.12;2.83;;;;;;;-3.44;67.64;101071.69;1737200;82;21521;-41
2021/03/09 06:54:13;;;;;;;4.87;3.70;;;;;;;-3.26;66.99;101069.16;1742756;82;20987;-41
2021/03/09 06:56:43;;;;;;;7.47;4.78;;;;;;;-3.12;66.00;101077.83;1742778;82;21086;-42
2021/03/09 06:59:27;;;;;;;13.30;8.45;;;;;;;-3.13;65.10;101083.70;1742835;82;20953;-42
2021/03/09 07:02:12;;;;;;;52.55;3.50;;;;;;;-3.12;65.96;101081.22;1742614;82;21348;-41
2021/03/09 07:04:47;;;;;;;11.15;2.55;;;;;;;-3.14;64.85;101090.83;1742811;82;21070;-41
2021/03/09 07:07:31;;;;;;;8.10;2.80;;;;;;;-3.14;64.83;101092.95;1742846;82;20936;-42
2021/03/09 07:10:08;;;;;;;3.50;3.10;;;;;;;-3.27;64.93;101086.84;1740783;82;21094;-40
2021/03/09 07:12:41;;;;;;;10.05;2.80;;;;;;;-3.37;65.99;101095.23;1740589;82;21643;-41
2021/03/09 07:15:15;;;;;;;3.58;2.10;;;;;;;-3.30;65.58;101090.45;1742758;82;21356;-42
2021/03/09 07:17:43;;;;;;;4.22;2.22;;;;;;;-3.44;66.12;101107.13;1742393;82;21030;-41
2021/03/09 07:20:14;;;;;;;4.75;2.70;;;;;;;-3.41;66.04;101089.94;1742706;82;21015;-42
2021/03/09 07:22:44;;;;;;;4.90;2.15;;;;;;;-3.30;67.02;101102.74;1741399;82;21039;-42
2021/03/09 07:25:14;;;;;;;2.75;2.40;;;;;;;-3.14;64.89;101106.88;1742738;82;21122;-42
2021/03/09 07:28:01;;;;;;;7.58;2.27;;;;;;;-3.23;65.46;101107.71;1742710;82;21351;-40
2021/03/09 07:30:32;;;;;;;2.65;2.02;;;;;;;-3.34;64.79;101097.91;1742706;82;21067;-41
2021/03/09 07:33:00;;;;;;;4.72;2.30;;;;;;;-3.54;64.11;101112.52;1742776;82;21043;-43
2021/03/09 07:35:29;;;;;;;4.83;2.90;;;;;;;-3.61;64.69;101122.34;1742767;82;21019;-41
2021/03/09 07:37:57;;;;;;;6.22;3.72;;;;;;;-3.65;65.03;101112.01;1742729;82;20965;-41
2021/03/09 07:40:33;;;;;;;5.78;2.37;;;;;;;-3.48;65.56;101119.17;1742682;82;21587;-41
2021/03/09 07:43:02;;;;;;;6.85;2.50;;;;;;;-3.17;65.25;101115.59;1742656;82;21511;-43
2021/03/09 07:45:35;;;;;;;2.90;2.17;;;;;;;-2.90;63.76;101122.39;1742760;82;21031;-42
2021/03/09 07:48:09;;;;;;;4.87;2.40;;;;;;;-3.00;63.85;101117.66;1742693;82;21086;-43
2021/03/09 07:50:43;;;;;;;3.05;2.25;;;;;;;-3.07;64.06;101120.72;1715830;82;20953;-43
2021/03/09 07:53:22;;;;;;;3.00;2.72;;;;;;;-3.04;63.90;101129.31;1734886;82;21217;-42
2021/03/09 07:56:06;;;;;;;2.98;2.10;;;;;;;-2.90;63.58;101137.59;1733716;82;21107;-42
2021/03/09 07:58:32;;;;;;;5.28;2.17;;;;;;;-2.75;63.02;101144.17;1733437;82;21040;-41
2021/03/09 08:01:03;;;;;;;3.45;2.27;;;;;;;-2.57;61.79;101133.16;1702792;82;20968;-43
2021/03/09 08:03:42;;;;;;;3.15;1.80;;;;;;;-2.35;62.61;101134.99;1733874;82;21576;-43
2021/03/09 08:06:16;;;;;;;2.98;2.12;;;;;;;-2.19;61.13;101132.36;1733756;82;21392;-43
2021/03/09 08:08:49;;;;;;;2.20;2.08;;;;;;;-2.41;58.59;101141.06;1733781;82;21103;-41
2021/03/09 08:11:25;;;;;;;4.72;2.30;;;;;;;-2.68;59.67;101135.20;1733849;82;21585;-41
2021/03/09 08:14:11;;;;;;;;;;;;;;;-2.74;60.26;101147.17;1736361;82;21060;-44
2021/03/09 08:16:43;;;;;;;3.58;2.02;;;;;;;-2.76;60.79;101132.30;1733841;82;20160;-41
2021/03/09 08:19:15;;;;;;;4.25;2.42;;;;;;;-2.76;61.03;101136.09;1733946;82;21477;-41
2021/03/09 08:22:00;;;;;;;5.55;2.08;;;;;;;-2.65;58.89;101134.95;1729471;82;21040;-41
2021/03/09 08:24:49;;;;;;;2.40;2.05;;;;;;;-2.76;57.85;101137.36;1734028;82;21016;-41
2021/03/09 08:27:36;;;;;;;2.62;1.70;;;;;;;-2.87;59.02;101143.61;1733757;82;21012;-43
2021/03/09 08:30:24;;;;;;;3.02;1.70;;;;;;;-2.95;59.67;101134.36;1733888;82;20996;-42
2021/03/09 08:32:52;;;;;;;1.87;1.60;;;;;;;-2.88;60.11;101136.38;1733770;82;21377;-42
2021/03/09 08:35:33;;;;;;;3.35;1.95;;;;;;;-2.79;59.34;101141.02;1733642;82;20965;-43
2021/03/09 08:38:12;;;;;;;25.52;10.40;;;;;;;-2.85;59.63;101154.69;1733824;81;20945;-42
2021/03/09 08:41:00;;;;;;;22.55;7.03;;;;;;;-2.85;60.18;101152.15;1733637;82;21063;-42
2021/03/09 08:43:28;;;;;;;23.83;9.40;;;;;;;-2.98;60.24;101146.48;1733811;82;21043;-43
2021/03/09 08:45:58;;;;;;;32.98;13.50;;;;;;;-3.09;60.40;101140.04;1733842;82;21371;-43
2021/03/09 08:48:50;;;;;;;38.00;13.05;;;;;;;-3.02;60.12;101145.02;1733631;82;21604;-42
2021/03/09 08:51:43;;;;;;;22.58;7.75;;;;;;;-2.97;58.22;101148.63;1733748;82;20969;-42
2021/03/09 08:54:19;;;;;;;52.45;20.68;;;;;;;-2.95;57.91;101148.30;1709988;84;21067;-44
2021/03/09 08:56:47;;;;;;;1.37;1.27;;;;;;;-2.94;57.21;101154.69;1710037;82;20957;-41
2021/03/09 08:59:21;;;;;;;17.62;7.58;;;;;;;-2.97;57.79;101162.15;1709967;84;21287;-44
2021/03/09 09:01:49;;;;;;;21.73;10.20;;;;;;;-3.02;57.28;101164.87;1709979;84;21183;-42
2021/03/09 09:04:17;;;;;;;5.12;2.15;;;;;;;-3.07;57.57;101159.56;1709972;82;21032;-42
2021/03/09 09:06:47;;;;;;;3.52;2.00;;;;;;;-3.05;57.03;101163.45;1709940;84;21011;-41
2021/03/09 09:09:31;;;;;;;3.20;2.25;;;;;;;-2.99;56.16;101161.21;1709990;84;20984;-43
2021/03/09 09:11:58;;;;;;;2.08;1.60;;;;;;;-2.99;54.56;101163.74;1709970;84;21354;-43
2021/03/09 09:14:28;;;;;;;3.08;1.92;;;;;;;-2.97;55.70;101172.28;1636635;84;21031;-43
2021/03/09 09:16:55;;;;;;;5.80;1.70;;;;;;;-2.96;54.65;101165.16;1710027;84;20996;-42
2021/03/09 09:19:23;;;;;;;3.25;2.08;;;;;;;-2.96;55.68;101164.30;1709983;84;21103;-43
2021/03/09 09:21:51;;;;;;;1.90;1.80;;;;;;;-2.66;54.60;101176.28;1709961;82;20952;-43
2021/03/09 09:24:20;;;;;;;2.12;1.72;;;;;;;-2.44;53.37;101164.61;1709967;82;21919;-46
2021/03/09 09:27:00;;;;;;;2.35;1.90;;;;;;;-2.25;52.96;101162.91;1709946;84;21043;-44
2021/03/09 09:29:27;;;;;;;1.37;1.27;;;;;;;-1.97;51.54;101167.95;1710019;84;21437;-44
2021/03/09 09:32:00;;;;;;;4.80;1.37;;;;;;;-1.75;50.71;101170.64;1709931;84;21054;-43
2021/03/09 09:34:35;;;;;;;10.13;3.98;;;;;;;-1.57;49.45;101169.70;1710054;82;21015;-45
2021/03/09 09:37:16;;;;;;;2.92;1.47;;;;;;;-1.67;48.86;101187.86;1709987;83;21383;-43
2021/03/09 09:39:44;;;;;;;12.07;4.60;;;;;;;-2.02;48.76;101176.23;1709914;84;21104;-43
2021/03/09 09:42:13;;;;;;;5.17;3.87;;;;;;;-2.42;49.01;101193.85;1709890;83;20972;-44
2021/03/09 09:44:41;;;;;;;21.82;10.50;;;;;;;-2.78;51.55;101194.72;1709970;84;21063;-43
2021/03/09 09:47:10;;;;;;;17.27;7.65;;;;;;;-2.90;53.23;101203.48;1709961;83;20984;-43
2021/03/09 09:49:39;;;;;;;5.33;2.95;;;;;;;-2.95;53.42;101192.23;1709940;82;21212;-42
2021/03/09 09:52:14;;;;;;;2.40;2.20;;;;;;;-3.00;53.44;101205.50;1684755;82;21051;-42
2021/03/09 09:54:55;;;;;;;9.30;5.08;;;;;;;-3.07;54.05;101208.12;1735005;82;21011;-43
2021/03/09 09:57:23;;;;;;;4.08;1.95;;;;;;;-2.98;55.08;101207.29;1734965;82;20972;-43
2021/03/09 09:59:51;;;;;;;2.60;2.40;;;;;;;-2.78;54.53;101211.20;1735120;82;21055;-42
2021/03/09 10:02:23;;;;;;;17.35;8.10;;;;;;;-2.63;53.05;101200.53;1708150;82;21365;-43
2021/03/09 10:04:51;;;;;;;8.88;2.30;;;;;;;-2.54;54.18;101205.56;1735046;82;21028;-42
2021/03/09 10:07:22;;;;;;;3.33;2.20;;;;;;;-2.32;52.71;101195.62;1735039;82;20988;-43
2021/03/09 10:10:04;;;;;;;17.10;2.17;;;;;;;-2.48;53.72;101210.91;1734999;82;20988;-44
2021/03/09 10:12:36;;;;;;;10.05;5.12;;;;;;;-2.61;53.17;101214.53;1732611;82;21063;-43
2021/03/09 10:15:08;;;;;;;29.90;2.90;;;;;;;-2.81;53.79;101218.23;1735134;81;21398;-42
2021/03/09 10:17:36;;;;;;;2.27;2.08;;;;;;;-2.84;54.36;101209.64;1734920;82;21051;-43
2021/03/09 10:20:21;;;;;;;25.12;11.97;;;;;;;-2.94;54.16;101224.38;1735003;82;21111;-43
2021/03/09 10:22:51;;;;;;;44.13;16.48;;;;;;;-3.01;55.61;101210.09;1731995;82;20972;-44
2021/03/09 10:25:19;;;;;;;17.82;6.78;;;;;;;-3.00;56.01;101216.90;1735004;82;20988;-44
2021/03/09 10:27:46;;;;;;;11.97;4.45;;;;;;;-2.94;55.09;101219.31;1703716;82;21492;-44
2021/03/09 10:30:18;;;;;;;8.85;3.70;;;;;;;-2.94;55.13;101219.31;1703433;82;21071;-42
2021/03/09 10:32:53;;;;;;;6.72;3.90;;;;;;;-2.93;55.14;101228.65;1731548;82;21015;-43
2021/03/09 10:35:21;;;;;;;4.10;3.08;;;;;;;-2.76;54.38;101229.87;1732212;82;20989;-44
2021/03/09 10:37:49;;;;;;;5.42;3.30;;;;;;;-2.70;52.89;101221.30;1703617;82;21086;-41
2021/03/09 10:40:17;;;;;;;3.92;1.90;;;;;;;-2.70;53.96;101217.49;1732184;81;21379;-42
2021/03/09 10:42:53;;;;;;;2.10;1.40;;;;;;;-2.54;53.83;101213.16;1732208;82;21592;-41
2021/03/09 10:45:26;;;;;;;4.45;3.35;;;;;;;-2.43;52.20;101214.52;1732435;82;21177;-44
2021/03/09 10:47:56;;;;;;;5.10;2.95;;;;;;;-2.38;53.17;101211.83;1732211;82;20995;-43
2021/03/09 10:50:32;;;;;;;4.33;3.10;;;;;;;-2.35;52.45;101209.81;1732300;82;21584;-46
2021/03/09 10:52:59;;;;;;;;;;;;;;;-2.26;52.90;101210.27;1732445;82;21485;-43
2021/03/09 10:55:27;;;;;;;3.02;2.10;;;;;;;-2.17;49.00;101219.55;1726023;83;20120;-44
2021/03/09 10:57:55;;;;;;;134.22;5.40;;;;;;;-2.19;49.13;101202.51;1725952;83;20981;-44
2021/03/09 11:00:23;;;;;;;1.87;1.75;;;;;;;-2.03;48.90;101214.22;1725988;83;21044;-45
2021/03/09 11:02:51;;;;;;;4.53;2.35;;;;;;;-2.16;47.68;101208.98;1726010;83;20985;-43
2021/03/09 11:05:19;;;;;;;2.45;1.80;;;;;;;-2.30;49.03;101205.82;1725989;83;21378;-43
2021/03/09 11:07:46;;;;;;;2.60;1.67;;;;;;;-2.26;51.53;101213.19;1725986;83;21020;-44
2021/03/09 11:10:16;;;;;;;2.62;1.80;;;;;;;-2.18;53.21;101215.66;1725932;83;21004;-44
2021/03/09 11:12:44;;;;;;;2.40;1.95;;;;;;;-2.21;53.55;101197.77;1725931;83;21091;-44
2021/03/09 11:15:13;;;;;;;1.92;1.62;;;;;;;-2.29;54.17;101215.58;1725993;83;21091;-41
2021/03/09 11:17:41;;;;;;;3.40;2.20;;;;;;;-2.12;52.91;101214.70;1726028;82;21225;-44
2021/03/09 11:20:10;;;;;;;4.53;2.05;;;;;;;-2.31;52.45;101213.84;1725917;83;20929;-43
2021/03/09 11:22:38;;;;;;;6.40;1.80;;;;;;;-2.60;53.23;101205.75;1725957;83;21170;-43
2021/03/09 11:25:10;;;;;;;3.12;2.20;;;;;;;-2.63;53.99;101219.55;1722243;83;20952;-43
2021/03/09 11:27:37;;;;;;;2.60;2.12;;;;;;;-2.75;53.91;101217.67;1726043;83;21020;-42
2021/03/09 11:30:07;;;;;;;2.98;2.20;;;;;;;-2.81;54.72;101216.97;1725964;83;21399;-43
2021/03/09 11:32:35;;;;;;;1.75;1.65;;;;;;;-2.77;54.23;101225.61;1726045;83;21036;-43
2021/03/09 11:35:04;;;;;;;2.55;1.80;;;;;;;-2.76;53.91;101222.28;1725966;83;21044;-42
2021/03/09 11:37:32;;;;;;;3.37;1.98;;;;;;;-2.66;53.60;101223.17;1726015;83;21578;-42
2021/03/09 11:40:00;;;;;;;2.37;1.70;;;;;;;-2.74;53.24;101225.75;1725902;83;20969;-42
2021/03/09 11:42:28;;;;;;;2.90;2.15;;;;;;;-2.84;53.79;101220.63;1725913;83;21212;-46
2021/03/09 11:44:55;;;;;;;2.17;1.90;;;;;;;-2.77;54.74;101224.34;1725968;83;21009;-42
2021/03/09 11:47:23;;;;;;;2.25;1.57;;;;;;;-2.47;54.47;101225.33;1725888;83;21048;-43
2021/03/09 11:49:50;;;;;;;5.67;2.25;;;;;;;-2.23;54.55;101221.81;1725963;83;21000;-43
2021/03/09 11:52:18;;;;;;;2.12;1.90;;;;;;;-2.06;53.18;101231.84;1725978;83;20961;-41
2021/03/09 11:54:45;;;;;;;3.20;1.80;;;;;;;-2.10;52.22;101225.78;1725904;82;21286;-42